createdAt,value
2022-08-09T00:01:48.401Z,71.32
2022-08-09T00:05:03.012Z,71.13
2022-08-09T00:07:54.875Z,71.53
2022-08-09T00:11:05.803Z,71.79
2022-08-09T00:14:10.165Z,71.96
2022-08-09T00:18:07.548Z,72.21
2022-08-09T00:20:25.039Z,72.61
2022-08-09T00:23:55.684Z,72.98
2022-08-09T00:26:42.066Z,73.06
2022-08-09T00:30:23.648Z,73.16
2022-08-09T00:32:56.277Z,73.15
2022-08-09T00:36:05.599Z,73.29
2022-08-09T00:39:17.009Z,73.40
2022-08-09T00:44:13.997Z,73.70
2022-08-09T00:45:26.329Z,74.19
2022-08-09T00:48:32.302Z,74.74
2022-08-09T00:51:42.611Z,75.16
2022-08-09T00:54:46.661Z,75.66
2022-08-09T00:57:52.317Z,76.20
2022-08-09T01:01:00.822Z,76.76
2022-08-09T01:04:09.262Z,77.22
2022-08-09T01:08:00.146Z,78.13
2022-08-09T01:11:16.053Z,78.88
2022-08-09T01:14:34.205Z,79.47
2022-08-09T01:17:49.322Z,79.69
2022-08-09T01:21:24.832Z,80.09
2022-08-09T01:25:00.837Z,80.00
2022-08-09T01:28:07.722Z,80.06
2022-08-09T01:32:30.334Z,80.11
2022-08-09T01:34:22.076Z,80.28
2022-08-09T01:38:05.871Z,80.36
2022-08-09T01:40:37.838Z,80.85
2022-08-09T01:43:51.975Z,80.94
2022-08-09T01:46:57.392Z,80.83
2022-08-09T01:50:06.565Z,80.76
2022-08-09T01:53:19.217Z,81.19
2022-08-09T01:56:20.420Z,81.11
2022-08-09T01:59:32.643Z,81.17
2022-08-09T02:02:44.048Z,81.00
2022-08-09T02:05:53.466Z,81.11
2022-08-09T02:08:59.710Z,81.43
2022-08-09T02:12:05.198Z,81.39
2022-08-09T02:15:16.780Z,81.85
2022-08-09T02:18:20.862Z,82.42
2022-08-09T02:21:29.312Z,82.54
2022-08-09T02:24:42.138Z,83.11
2022-08-09T02:27:58.276Z,83.87
2022-08-09T02:31:05.955Z,85.09
2022-08-09T02:34:40.762Z,86.24
2022-08-09T02:37:31.687Z,86.71
2022-08-09T02:40:34.093Z,87.07
2022-08-09T02:43:54.251Z,87.64
2022-08-09T02:46:47.089Z,88.03
2022-08-09T02:50:01.936Z,88.44
2022-08-09T02:53:17.279Z,88.51
2022-08-09T02:56:20.998Z,88.90
2022-08-09T02:59:36.435Z,88.71
2022-08-09T03:02:33.824Z,88.48
2022-08-09T03:05:39.844Z,88.03
2022-08-09T03:08:46.231Z,87.71
2022-08-09T03:12:08.444Z,87.49
2022-08-09T03:15:00.831Z,86.31
2022-08-09T03:18:09.871Z,85.46
2022-08-09T03:21:13.849Z,84.55
2022-08-09T03:24:31.426Z,83.97
2022-08-09T03:27:26.445Z,83.43
2022-08-09T03:30:34.088Z,83.21
2022-08-09T03:33:53.982Z,83.00
2022-08-09T03:36:58.258Z,83.16
2022-08-09T03:39:56.716Z,82.93
2022-08-09T03:43:02.012Z,82.08
2022-08-09T03:46:27.026Z,81.30
2022-08-09T03:49:17.292Z,80.44
2022-08-09T03:52:24.004Z,79.21
2022-08-09T03:55:36.271Z,78.37
2022-08-09T03:58:39.094Z,77.66
2022-08-09T04:01:45.986Z,76.96
2022-08-09T04:04:52.470Z,76.08
2022-08-09T04:07:58.629Z,76.08
2022-08-09T04:11:04.073Z,75.15
2022-08-09T04:14:53.129Z,75.24
2022-08-09T04:17:18.193Z,74.58
2022-08-09T04:20:25.614Z,74.24
2022-08-09T04:23:31.567Z,73.51
2022-08-09T04:26:38.471Z,72.90
2022-08-09T04:29:50.075Z,72.98
2022-08-09T04:32:51.646Z,72.53
2022-08-09T04:35:58.462Z,72.15
2022-08-09T04:38:57.112Z,71.71
2022-08-09T04:41:44.052Z,70.94
2022-08-09T04:44:37.372Z,69.69
2022-08-09T04:47:23.074Z,69.04
2022-08-09T04:50:19.686Z,68.28
2022-08-09T04:53:13.607Z,67.71
2022-08-09T04:56:06.338Z,67.38
2022-08-09T04:58:53.253Z,66.73
2022-08-09T05:01:47.230Z,66.89
2022-08-09T05:04:34.206Z,66.29
2022-08-09T05:07:27.712Z,65.91
2022-08-09T05:10:15.806Z,64.65
2022-08-09T05:13:07.899Z,63.08
2022-08-09T05:16:15.170Z,61.23
2022-08-09T05:19:24.461Z,59.14
2022-08-09T05:22:36.231Z,56.94
2022-08-09T05:25:36.429Z,56.10
2022-08-09T05:28:42.338Z,54.38
2022-08-09T05:31:56.271Z,54.27
2022-08-09T05:34:56.705Z,52.78
2022-08-09T05:38:21.776Z,52.60
2022-08-09T05:41:23.319Z,51.02
2022-08-09T05:44:32.872Z,50.87
2022-08-09T05:47:51.585Z,50.17
2022-08-09T05:50:51.054Z,50.79
2022-08-09T05:53:57.682Z,50.26
2022-08-09T05:57:02.792Z,47.37
2022-08-09T06:00:10.225Z,48.21
2022-08-09T06:03:20.064Z,47.72
2022-08-09T06:06:24.533Z,48.15
2022-08-09T06:09:54.400Z,48.52
2022-08-09T06:12:37.671Z,48.35
2022-08-09T06:15:43.105Z,48.73
2022-08-09T06:18:49.863Z,47.73
2022-08-09T06:21:58.645Z,46.71
2022-08-09T06:25:04.491Z,46.56
2022-08-09T06:28:12.593Z,44.58
2022-08-09T06:31:18.741Z,44.21
2022-08-09T06:34:30.702Z,45.80
2022-08-09T06:37:52.891Z,46.14
2022-08-09T06:40:41.724Z,44.99
2022-08-09T06:43:48.112Z,45.20
2022-08-09T06:46:55.793Z,45.28
2022-08-09T06:50:14.274Z,46.23
2022-08-09T06:53:09.497Z,44.17
2022-08-09T06:56:16.443Z,45.92
2022-08-09T07:00:51.245Z,45.66
2022-08-09T07:02:31.743Z,46.33
2022-08-09T07:06:02.369Z,44.99
2022-08-09T07:08:49.704Z,45.66
2022-08-09T07:11:55.092Z,45.80
2022-08-09T07:15:53.167Z,43.73
2022-08-09T07:18:10.243Z,44.46
2022-08-09T07:21:15.564Z,44.38
2022-08-09T07:24:21.867Z,42.31
2022-08-09T07:27:34.495Z,42.31
2022-08-09T07:30:36.419Z,41.97
2022-08-09T07:33:53.296Z,43.25
2022-08-09T07:36:53.503Z,41.70
2022-08-09T07:39:59.816Z,42.55
2022-08-09T07:43:16.699Z,43.63
2022-08-09T07:46:21.777Z,43.63
2022-08-09T07:49:29.451Z,45.05
2022-08-09T07:52:36.069Z,44.20
2022-08-09T07:56:05.833Z,43.35
2022-08-09T07:58:48.344Z,43.86
2022-08-09T08:01:55.933Z,43.36
2022-08-09T08:05:01.307Z,42.38
2022-08-09T08:09:00.003Z,40.74
2022-08-09T08:12:08.737Z,40.61
2022-08-09T08:14:14.260Z,41.27
2022-08-09T08:17:24.875Z,40.51
2022-08-09T08:20:32.251Z,40.34
2022-08-09T08:23:37.188Z,38.96
2022-08-09T08:26:54.668Z,38.44
2022-08-09T08:29:52.383Z,37.91
2022-08-09T08:32:59.985Z,35.62
2022-08-09T08:36:05.613Z,36.04
2022-08-09T08:39:11.066Z,33.81
2022-08-09T08:42:16.597Z,33.43
2022-08-09T08:45:37.237Z,33.78
2022-08-09T08:48:31.168Z,32.93
2022-08-09T08:51:38.688Z,33.44
2022-08-09T08:54:44.426Z,32.22
2022-08-09T08:57:57.271Z,32.35
2022-08-09T09:00:58.294Z,32.75
2022-08-09T09:04:04.135Z,32.73
2022-08-09T09:07:12.670Z,32.55
2022-08-09T09:10:21.289Z,33.04
2022-08-09T09:13:41.952Z,32.36
2022-08-09T09:16:40.296Z,32.14
2022-08-09T09:19:47.059Z,31.74
2022-08-09T09:23:10.076Z,31.77
2022-08-09T09:26:16.628Z,30.91
2022-08-09T09:29:19.052Z,30.20
2022-08-09T09:32:32.428Z,29.19
2022-08-09T09:35:33.218Z,29.53
2022-08-09T09:38:38.426Z,28.82
2022-08-09T09:41:49.890Z,30.27
2022-08-09T09:44:54.162Z,26.88
2022-08-09T09:48:01.952Z,27.67
2022-08-09T09:51:11.721Z,26.71
2022-08-09T09:54:27.002Z,28.25
2022-08-09T09:58:02.983Z,29.55
2022-08-09T10:00:43.274Z,29.48
2022-08-09T10:04:00.126Z,29.73
2022-08-09T10:07:10.046Z,28.18
2022-08-09T10:10:14.354Z,26.15
2022-08-09T10:13:42.815Z,27.41
2022-08-09T10:16:58.288Z,27.18
2022-08-09T10:19:29.650Z,26.30
2022-08-09T10:22:45.614Z,26.13
2022-08-09T10:26:04.941Z,26.33
2022-08-09T10:29:22.470Z,26.64
2022-08-09T10:35:08.050Z,23.98
2022-08-09T10:38:41.713Z,24.74
2022-08-09T10:41:21.581Z,25.31
2022-08-09T10:44:26.746Z,25.75
2022-08-09T10:48:19.402Z,25.18
2022-08-09T10:51:14.091Z,24.51
2022-08-09T10:54:21.252Z,26.59
2022-08-09T10:57:29.707Z,27.26
2022-08-09T11:01:10.977Z,25.33
2022-08-09T11:04:30.381Z,27.22
2022-08-09T11:07:57.337Z,27.52
2022-08-09T11:11:08.452Z,26.74
2022-08-09T11:14:48.897Z,26.73
2022-08-09T11:18:03.850Z,26.91
2022-08-09T11:21:05.878Z,27.12
2022-08-09T11:24:17.753Z,27.33
2022-08-09T11:28:03.857Z,26.33
2022-08-09T11:30:52.877Z,27.28
2022-08-09T11:34:04.625Z,26.84
2022-08-09T11:37:18.428Z,26.85
2022-08-09T11:40:21.504Z,27.71
2022-08-09T11:43:41.735Z,27.75
2022-08-09T11:47:10.994Z,27.01
2022-08-09T11:50:54.953Z,26.77
2022-08-09T11:53:58.835Z,25.54
2022-08-09T11:56:42.441Z,25.30
2022-08-09T11:59:46.579Z,25.22
2022-08-09T12:02:54.792Z,25.91
2022-08-09T12:06:01.730Z,26.07
2022-08-09T12:09:19.119Z,25.36
2022-08-09T12:12:20.592Z,25.16
2022-08-09T12:15:49.297Z,25.35
2022-08-09T12:18:49.043Z,25.89
2022-08-09T12:22:00.808Z,25.91
2022-08-09T12:25:09.666Z,25.41
2022-08-09T12:29:12.464Z,24.72
2022-08-09T12:32:01.838Z,24.44
2022-08-09T12:34:55.763Z,24.81
2022-08-09T12:38:02.990Z,26.17
2022-08-09T12:41:09.481Z,24.58
2022-08-09T12:44:15.840Z,24.02
2022-08-09T12:47:23.308Z,23.09
2022-08-09T12:50:30.359Z,24.06
2022-08-09T12:53:53.252Z,25.19
2022-08-09T12:57:02.742Z,24.91
2022-08-09T13:00:08.184Z,23.36
2022-08-09T13:03:24.605Z,23.03
2022-08-09T13:06:23.354Z,22.32
2022-08-09T13:09:52.618Z,23.53
2022-08-09T13:13:10.919Z,24.16
2022-08-09T13:16:12.810Z,24.57
2022-08-09T13:19:19.354Z,24.41
2022-08-09T13:23:05.185Z,22.96
2022-08-09T13:25:53.069Z,21.86
2022-08-09T13:28:49.691Z,22.56
2022-08-09T13:32:25.474Z,23.56
2022-08-09T13:35:26.055Z,24.25
2022-08-09T13:38:55.805Z,24.33
2022-08-09T13:41:57.272Z,23.06
2022-08-09T13:44:48.720Z,22.29
2022-08-09T13:47:59.055Z,22.21
2022-08-09T13:51:02.105Z,22.21
2022-08-09T13:54:08.291Z,21.88
2022-08-09T13:57:35.360Z,21.92
2022-08-09T14:00:39.696Z,23.32
2022-08-09T14:04:03.339Z,22.67
2022-08-09T14:06:47.256Z,24.14
2022-08-09T14:09:54.392Z,25.09
2022-08-09T14:13:02.202Z,25.54
2022-08-09T14:16:11.265Z,25.77
2022-08-09T14:19:16.386Z,23.69
2022-08-09T14:22:23.560Z,24.20
2022-08-09T14:25:31.314Z,24.54
2022-08-09T14:28:36.777Z,24.59
2022-08-09T14:31:51.810Z,25.10
2022-08-09T14:34:55.646Z,25.22
2022-08-09T14:38:02.393Z,25.23
2022-08-09T14:41:12.824Z,25.54
2022-08-09T14:44:11.141Z,25.41
2022-08-09T14:47:29.021Z,25.42
2022-08-09T14:50:26.317Z,25.19
2022-08-09T14:53:33.382Z,24.82
2022-08-09T14:56:53.640Z,25.20
2022-08-09T14:59:48.752Z,24.86
2022-08-09T15:02:56.068Z,25.50
2022-08-09T15:06:03.962Z,26.22
2022-08-09T15:09:10.536Z,26.61
2022-08-09T15:12:16.340Z,26.72
2022-08-09T15:15:28.512Z,26.77
2022-08-09T15:18:25.399Z,27.00
2022-08-09T15:21:58.872Z,27.20
2022-08-09T15:24:27.413Z,27.50
2022-08-09T15:27:47.845Z,27.42
2022-08-09T15:30:59.254Z,27.84
2022-08-09T15:34:19.558Z,28.19
2022-08-09T15:36:56.227Z,28.22
2022-08-09T15:40:04.623Z,28.45
2022-08-09T15:43:13.446Z,28.76
2022-08-09T15:46:31.585Z,29.10
2022-08-09T15:49:23.534Z,29.56
2022-08-09T15:52:25.725Z,30.08
2022-08-09T15:55:31.308Z,30.26
2022-08-09T15:58:38.310Z,30.60
2022-08-09T16:01:41.208Z,30.93
2022-08-09T16:04:35.514Z,31.43
2022-08-09T16:07:45.769Z,31.36
2022-08-09T16:10:56.050Z,31.72
2022-08-09T16:14:02.960Z,31.74
2022-08-09T16:17:04.728Z,32.27
2022-08-09T16:20:12.745Z,32.34
2022-08-09T16:23:19.986Z,32.22
2022-08-09T16:26:34.871Z,32.78
2022-08-09T16:29:36.622Z,32.78
2022-08-09T16:33:00.737Z,33.36
2022-08-09T16:36:13.159Z,33.71
2022-08-09T16:39:14.637Z,34.22
2022-08-09T16:42:23.987Z,34.60
2022-08-09T16:45:22.003Z,34.93
2022-08-09T16:48:42.025Z,35.27
2022-08-09T16:51:35.946Z,35.57
2022-08-09T16:54:41.583Z,36.01
2022-08-09T16:58:08.568Z,36.48
2022-08-09T17:01:11.113Z,37.14
2022-08-09T17:04:28.370Z,37.61
2022-08-09T17:08:45.941Z,38.03
2022-08-09T17:10:32.837Z,38.57
2022-08-09T17:13:39.618Z,38.90
2022-08-09T17:16:46.660Z,39.31
2022-08-09T17:20:32.308Z,39.76
2022-08-09T17:22:59.023Z,40.27
2022-08-09T17:26:05.678Z,40.80
2022-08-09T17:29:20.729Z,41.32
2022-08-09T17:32:34.657Z,42.10
2022-08-09T17:35:27.314Z,42.99
2022-08-09T17:38:39.035Z,43.81
2022-08-09T17:41:41.591Z,44.93
2022-08-09T17:44:49.140Z,45.46
2022-08-09T17:48:02.400Z,46.14
2022-08-09T17:51:10.111Z,46.68
2022-08-09T17:54:10.202Z,47.34
2022-08-09T17:57:20.619Z,47.75
2022-08-09T18:00:43.970Z,48.11
2022-08-09T18:03:33.053Z,48.61
2022-08-09T18:06:39.166Z,49.05
2022-08-09T18:10:04.141Z,49.65
2022-08-09T18:13:40.195Z,50.23
2022-08-09T18:16:07.632Z,50.68
2022-08-09T18:20:56.769Z,50.98
2022-08-09T18:22:19.719Z,51.53
2022-08-09T18:25:52.478Z,52.13
2022-08-09T18:30:40.545Z,52.63
2022-08-09T18:31:55.137Z,53.10
2022-08-09T18:34:50.551Z,53.44
2022-08-09T18:37:58.149Z,53.82
2022-08-09T18:41:03.614Z,54.13
2022-08-09T18:44:12.962Z,54.37
2022-08-09T18:47:20.682Z,54.77
2022-08-09T18:50:25.056Z,55.19
2022-08-09T18:53:55.997Z,55.95
2022-08-09T18:56:39.813Z,56.31
2022-08-09T18:59:48.826Z,56.93
2022-08-09T19:02:54.270Z,57.35
2022-08-09T19:06:03.162Z,57.83
2022-08-09T19:09:07.311Z,58.21
2022-08-09T19:12:14.658Z,58.58
2022-08-09T19:15:22.814Z,59.00
2022-08-09T19:18:32.974Z,59.51
2022-08-09T19:21:52.101Z,60.10
2022-08-09T19:25:11.631Z,60.61
2022-08-09T19:27:53.712Z,61.46
2022-08-09T19:31:00.776Z,61.63
2022-08-09T19:34:06.896Z,62.04
2022-08-09T19:37:16.795Z,62.48
2022-08-09T19:40:22.918Z,62.64
2022-08-09T19:43:58.047Z,63.11
2022-08-09T19:46:50.192Z,63.46
2022-08-09T19:50:08.382Z,63.73
2022-08-09T19:52:52.622Z,63.86
2022-08-09T19:56:03.087Z,64.10
2022-08-09T19:59:06.283Z,64.33
2022-08-09T20:02:18.335Z,64.50
2022-08-09T20:05:23.758Z,64.68
2022-08-09T20:08:35.429Z,64.88
2022-08-09T20:11:48.850Z,65.04
2022-08-09T20:14:50.488Z,65.36
2022-08-09T20:17:54.310Z,66.00
2022-08-09T20:20:58.062Z,66.79
2022-08-09T20:24:04.104Z,67.32
2022-08-09T20:27:11.564Z,68.13
2022-08-09T20:30:21.856Z,68.83
2022-08-09T20:33:25.671Z,70.14
2022-08-09T20:36:33.161Z,71.25
2022-08-09T20:40:14.738Z,72.25
2022-08-09T20:43:00.366Z,73.36
2022-08-09T20:45:59.794Z,74.36
2022-08-09T20:48:56.695Z,75.51
2022-08-09T20:52:03.123Z,76.49
2022-08-09T20:55:09.333Z,77.60
2022-08-09T20:58:20.262Z,78.53
2022-08-09T21:01:34.539Z,78.99
2022-08-09T21:05:49.408Z,79.80
2022-08-09T21:07:40.433Z,80.55
2022-08-09T21:10:53.211Z,81.03
2022-08-09T21:13:59.703Z,81.44
2022-08-09T21:18:11.465Z,82.12
2022-08-09T21:20:22.580Z,82.33
2022-08-09T21:23:16.694Z,82.92
2022-08-09T21:26:22.771Z,83.12
2022-08-09T21:29:30.522Z,83.55
2022-08-09T21:32:33.416Z,83.27
2022-08-09T21:35:39.515Z,83.47
2022-08-09T21:38:56.927Z,83.80
2022-08-09T21:42:03.782Z,84.16
2022-08-09T21:45:03.843Z,84.62
2022-08-09T21:48:10.762Z,85.07
2022-08-09T21:51:24.250Z,85.47
2022-08-09T21:54:09.142Z,86.32
2022-08-09T21:57:59.903Z,86.72
2022-08-09T22:00:52.283Z,87.21
2022-08-09T22:03:59.797Z,88.08
2022-08-09T22:07:06.143Z,88.81
2022-08-09T22:10:12.715Z,89.60
2022-08-09T22:13:19.487Z,89.89
2022-08-09T22:16:18.928Z,89.54
2022-08-09T22:19:58.674Z,90.32
2022-08-09T22:22:33.841Z,91.14
2022-08-09T22:26:07.822Z,92.05
2022-08-09T22:28:53.846Z,92.80
2022-08-09T22:31:56.880Z,93.61
2022-08-09T22:35:02.356Z,94.15
2022-08-09T22:38:08.731Z,94.70
2022-08-09T22:41:15.096Z,95.13
2022-08-09T22:44:21.153Z,94.79
2022-08-09T22:48:16.602Z,95.20
2022-08-09T22:50:33.036Z,95.39
2022-08-09T22:53:44.327Z,95.49
2022-08-09T22:56:45.252Z,95.29
2022-08-09T22:59:58.383Z,94.89
2022-08-09T23:03:00.115Z,95.48
2022-08-09T23:06:07.365Z,96.11
2022-08-09T23:09:16.084Z,96.90
2022-08-09T23:12:21.895Z,97.09
2022-08-09T23:15:27.381Z,96.45
2022-08-09T23:18:33.190Z,96.75
2022-08-09T23:21:39.633Z,97.40
2022-08-09T23:24:45.363Z,97.97
2022-08-09T23:28:13.963Z,98.52
2022-08-09T23:31:00.407Z,99.13
2022-08-09T23:34:05.820Z,98.32
2022-08-09T23:37:11.261Z,99.54
2022-08-09T23:40:16.199Z,99.95
2022-08-09T23:43:21.533Z,99.97
2022-08-09T23:46:28.470Z,100.00
2022-08-09T23:49:34.455Z,100.00
2022-08-09T23:52:40.551Z,100.00
2022-08-09T23:55:49.363Z,100.00
2022-08-09T23:58:54.757Z,100.00
